createdAt,value
2023-05-22T00:01:14.284Z,11.63
2023-05-22T00:03:41.185Z,12.85
2023-05-22T00:06:10.491Z,12.85
2023-05-22T00:09:00.124Z,12.43
2023-05-22T00:11:36.380Z,12.30
2023-05-22T00:14:09.993Z,12.68
2023-05-22T00:16:37.106Z,12.60
2023-05-22T00:19:11.013Z,12.75
2023-05-22T00:21:44.945Z,12.68
2023-05-22T00:24:11.913Z,13.57
2023-05-22T00:26:47.991Z,13.88
2023-05-22T00:29:21.531Z,13.93
2023-05-22T00:31:55.080Z,13.55
2023-05-22T00:34:24.644Z,14.02
2023-05-22T00:36:57.972Z,14.57
2023-05-22T00:39:24.968Z,14.23
2023-05-22T00:41:59.042Z,13.90
2023-05-22T00:44:26.029Z,14.93
2023-05-22T00:47:00.074Z,12.95
2023-05-22T00:49:26.996Z,14.27
2023-05-22T00:52:01.037Z,14.20
2023-05-22T00:54:35.990Z,13.63
2023-05-22T00:57:03.931Z,14.43
2023-05-22T00:59:37.977Z,14.90
2023-05-22T01:02:12.223Z,14.50
2023-05-22T01:04:46.066Z,15.05
2023-05-22T01:07:20.012Z,14.73
2023-05-22T01:09:46.929Z,15.20
2023-05-22T01:12:38.018Z,15.27
2023-05-22T01:15:37.925Z,14.57
2023-05-22T01:18:26.032Z,15.88
2023-05-22T01:21:37.046Z,14.95
2023-05-22T01:24:49.049Z,15.48
2023-05-22T01:27:18.511Z,14.93
2023-05-22T01:30:08.123Z,15.02
2023-05-22T01:32:51.099Z,14.93
2023-05-22T01:35:19.658Z,15.20
2023-05-22T01:37:54.039Z,15.70
2023-05-22T01:40:28.134Z,15.38
2023-05-22T01:43:02.086Z,15.98
2023-05-22T01:45:32.010Z,15.13
2023-05-22T01:48:06.086Z,16.13
2023-05-22T01:50:33.468Z,15.95
2023-05-22T01:53:25.099Z,16.73
2023-05-22T01:56:10.867Z,16.50
2023-05-22T01:59:08.046Z,16.63
2023-05-22T02:01:38.753Z,17.15
2023-05-22T02:04:13.067Z,17.08
2023-05-22T02:06:41.753Z,17.13
2023-05-22T02:09:16.061Z,17.25
2023-05-22T02:11:50.076Z,17.20
2023-05-22T02:14:25.053Z,17.27
2023-05-22T02:16:54.458Z,18.05
2023-05-22T02:19:28.273Z,18.08
2023-05-22T02:22:02.135Z,17.58
2023-05-22T02:24:30.608Z,18.20
2023-05-22T02:27:05.041Z,17.13
2023-05-22T02:29:38.357Z,18.58
2023-05-22T02:32:18.194Z,19.33
2023-05-22T02:34:45.328Z,20.23
2023-05-22T02:37:20.137Z,20.05
2023-05-22T02:39:46.993Z,20.35
2023-05-22T02:42:20.109Z,21.95
2023-05-22T02:44:46.959Z,21.10
2023-05-22T02:47:20.149Z,20.88
2023-05-22T02:49:54.118Z,22.00
2023-05-22T02:52:28.123Z,22.23
2023-05-22T02:55:02.085Z,23.30
2023-05-22T02:57:28.988Z,22.85
2023-05-22T03:00:03.094Z,22.75
2023-05-22T03:02:32.723Z,24.85
2023-05-22T03:05:06.160Z,25.60
2023-05-22T03:07:33.235Z,26.75
2023-05-22T03:10:07.426Z,27.90
2023-05-22T03:12:34.376Z,28.77
2023-05-22T03:15:08.125Z,29.00
2023-05-22T03:17:35.100Z,29.35
2023-05-22T03:20:08.150Z,29.13
2023-05-22T03:22:41.045Z,29.10
2023-05-22T03:25:16.312Z,28.15
2023-05-22T03:27:43.352Z,30.05
2023-05-22T03:30:26.133Z,29.00
2023-05-22T03:32:53.786Z,30.40
2023-05-22T03:35:28.425Z,29.33
2023-05-22T03:38:02.013Z,30.13
2023-05-22T03:40:35.126Z,31.67
2023-05-22T03:43:08.132Z,30.65
2023-05-22T03:45:35.191Z,30.67
2023-05-22T03:48:08.197Z,30.88
2023-05-22T03:50:35.070Z,31.23
2023-05-22T03:53:08.191Z,31.15
2023-05-22T03:55:35.142Z,31.08
2023-05-22T03:58:08.126Z,31.55
2023-05-22T04:00:43.163Z,31.15
2023-05-22T04:03:19.328Z,31.85
2023-05-22T04:05:47.443Z,31.23
2023-05-22T04:08:21.153Z,31.58
2023-05-22T04:10:55.098Z,31.98
2023-05-22T04:13:28.194Z,31.52
2023-05-22T04:15:57.120Z,32.10
2023-05-22T04:18:24.291Z,32.08
2023-05-22T04:20:59.348Z,32.72
2023-05-22T04:23:26.378Z,30.02
2023-05-22T04:26:00.217Z,28.88
2023-05-22T04:28:27.344Z,29.73
2023-05-22T04:31:07.226Z,31.33
2023-05-22T04:33:34.880Z,31.67
2023-05-22T04:36:11.527Z,31.15
2023-05-22T04:38:39.400Z,31.33
2023-05-22T04:41:15.428Z,32.13
2023-05-22T04:43:49.191Z,32.72
2023-05-22T04:46:16.534Z,31.13
2023-05-22T04:48:50.271Z,32.45
2023-05-22T04:51:17.407Z,32.75
2023-05-22T04:53:51.167Z,32.40
2023-05-22T04:56:35.336Z,31.40
2023-05-22T04:59:11.158Z,33.05
2023-05-22T05:01:45.241Z,29.70
2023-05-22T05:04:19.201Z,31.05
2023-05-22T05:06:46.328Z,31.35
2023-05-22T05:09:20.234Z,33.78
2023-05-22T05:11:47.294Z,34.65
2023-05-22T05:14:21.181Z,35.05
2023-05-22T05:16:48.320Z,35.90
2023-05-22T05:19:22.190Z,34.38
2023-05-22T05:21:52.667Z,37.22
2023-05-22T05:24:26.171Z,35.60
2023-05-22T05:27:00.244Z,36.50
2023-05-22T05:29:40.482Z,35.30
2023-05-22T05:32:14.212Z,35.88
2023-05-22T05:34:50.201Z,34.53
2023-05-22T05:37:24.225Z,35.10
2023-05-22T05:39:51.443Z,37.58
2023-05-22T05:42:25.436Z,35.30
2023-05-22T05:44:52.469Z,34.42
2023-05-22T05:47:26.182Z,35.90
2023-05-22T05:49:53.159Z,36.53
2023-05-22T05:52:26.221Z,34.88
2023-05-22T05:54:53.300Z,34.33
2023-05-22T05:57:27.392Z,35.40
2023-05-22T05:59:54.312Z,33.25
2023-05-22T06:02:28.297Z,36.20
2023-05-22T06:05:03.307Z,34.55
2023-05-22T06:07:30.459Z,36.38
2023-05-22T06:10:04.221Z,36.05
2023-05-22T06:12:31.728Z,34.47
2023-05-22T06:15:05.297Z,35.97
2023-05-22T06:17:32.510Z,38.38
2023-05-22T06:20:06.291Z,36.88
2023-05-22T06:22:33.240Z,37.17
2023-05-22T06:25:07.332Z,38.20
2023-05-22T06:27:34.397Z,38.58
2023-05-22T06:30:16.824Z,39.65
2023-05-22T06:32:53.804Z,37.97
2023-05-22T06:35:27.366Z,40.88
2023-05-22T06:37:54.985Z,39.78
2023-05-22T06:40:29.388Z,40.33
2023-05-22T06:43:04.191Z,41.03
2023-05-22T06:45:38.325Z,42.60
2023-05-22T06:48:05.658Z,42.35
2023-05-22T06:50:32.588Z,43.10
2023-05-22T06:53:06.340Z,41.95
2023-05-22T06:55:33.243Z,41.42
2023-05-22T06:58:07.187Z,41.60
2023-05-22T07:00:34.360Z,43.15
2023-05-22T07:03:08.292Z,43.63
2023-05-22T07:05:35.330Z,42.60
2023-05-22T07:08:09.263Z,42.85
2023-05-22T07:10:36.314Z,42.90
2023-05-22T07:13:10.249Z,43.70
2023-05-22T07:15:45.119Z,40.50
2023-05-22T07:18:20.309Z,39.00
2023-05-22T07:20:47.481Z,41.67
2023-05-22T07:23:21.396Z,38.58
2023-05-22T07:25:55.353Z,36.88
2023-05-22T07:28:29.357Z,34.92
2023-05-22T07:31:03.302Z,35.72
2023-05-22T07:33:30.190Z,34.13
2023-05-22T07:36:04.256Z,32.75
2023-05-22T07:38:31.184Z,33.30
2023-05-22T07:41:04.375Z,29.63
2023-05-22T07:43:31.728Z,27.77
2023-05-22T07:46:05.210Z,26.90
2023-05-22T07:48:32.300Z,26.08
2023-05-22T07:51:05.299Z,27.42
2023-05-22T07:53:32.403Z,27.52
2023-05-22T07:56:06.225Z,26.40
2023-05-22T07:58:35.160Z,26.13
2023-05-22T08:01:09.723Z,24.38
2023-05-22T08:03:43.599Z,24.95
2023-05-22T08:06:10.822Z,24.98
2023-05-22T08:08:44.336Z,25.60
2023-05-22T08:11:11.452Z,23.65
2023-05-22T08:13:45.250Z,21.80
2023-05-22T08:16:12.185Z,20.05
2023-05-22T08:18:45.380Z,21.75
2023-05-22T08:21:12.347Z,20.60
2023-05-22T08:23:45.188Z,20.02
2023-05-22T08:26:12.705Z,18.48
2023-05-22T08:28:44.287Z,17.77
2023-05-22T08:31:18.353Z,19.00
2023-05-22T08:33:45.453Z,19.67
2023-05-22T08:36:20.832Z,19.70
2023-05-22T08:38:47.678Z,20.00
2023-05-22T08:41:22.265Z,19.00
2023-05-22T08:43:49.318Z,19.75
2023-05-22T08:46:24.382Z,18.27
2023-05-22T08:48:52.434Z,18.52
2023-05-22T08:51:28.311Z,17.25
2023-05-22T08:54:03.440Z,16.05
2023-05-22T08:56:32.090Z,14.70
2023-05-22T08:59:08.277Z,14.75
2023-05-22T09:01:42.673Z,14.48
2023-05-22T09:04:16.285Z,15.45
2023-05-22T09:06:49.537Z,15.57
2023-05-22T09:09:23.486Z,15.35
2023-05-22T09:11:57.328Z,14.50
2023-05-22T09:14:27.461Z,16.08
2023-05-22T09:17:01.355Z,16.00
2023-05-22T09:19:34.505Z,16.67
2023-05-22T09:22:06.626Z,17.15
2023-05-22T09:24:50.471Z,17.45
2023-05-22T09:27:17.574Z,17.80
2023-05-22T09:29:59.279Z,17.75
2023-05-22T09:32:36.687Z,17.60
2023-05-22T09:35:12.513Z,15.75
2023-05-22T09:37:40.437Z,16.50
2023-05-22T09:40:23.412Z,18.58
2023-05-22T09:42:50.380Z,17.17
2023-05-22T09:45:28.771Z,15.30
2023-05-22T09:47:56.114Z,15.15
2023-05-22T09:50:23.500Z,17.38
2023-05-22T09:52:58.361Z,16.52
2023-05-22T09:55:27.516Z,17.13
2023-05-22T09:58:02.545Z,15.88
2023-05-22T10:00:30.408Z,13.85
2023-05-22T10:03:19.363Z,13.93
2023-05-22T10:05:54.135Z,12.43
2023-05-22T10:08:34.433Z,14.55
2023-05-22T10:11:03.853Z,13.80
2023-05-22T10:13:37.522Z,14.30
2023-05-22T10:16:08.158Z,12.52
2023-05-22T10:18:43.355Z,14.68
2023-05-22T10:21:10.498Z,13.18
2023-05-22T10:23:44.525Z,14.68
2023-05-22T10:26:11.742Z,16.20
2023-05-22T10:28:53.307Z,15.27
2023-05-22T10:31:48.582Z,15.18
2023-05-22T10:34:35.533Z,14.73
2023-05-22T10:37:17.003Z,19.33
2023-05-22T10:39:58.455Z,18.73
2023-05-22T10:42:30.105Z,19.42
2023-05-22T10:44:57.102Z,20.08
2023-05-22T10:47:30.524Z,18.60
2023-05-22T10:50:11.827Z,18.80
2023-05-22T10:52:47.355Z,18.63
2023-05-22T10:55:14.872Z,19.08
2023-05-22T10:57:49.448Z,18.42
2023-05-22T11:00:18.952Z,17.83
2023-05-22T11:02:52.484Z,17.92
2023-05-22T11:05:20.385Z,18.23
2023-05-22T11:07:54.419Z,16.42
2023-05-22T11:10:27.919Z,17.40
2023-05-22T11:13:19.337Z,18.10
2023-05-22T11:15:46.891Z,18.23
2023-05-22T11:18:23.438Z,17.25
2023-05-22T11:20:50.539Z,17.63
2023-05-22T11:23:26.347Z,20.42
2023-05-22T11:25:53.531Z,20.63
2023-05-22T11:28:27.461Z,20.08
2023-05-22T11:31:01.668Z,21.23
2023-05-22T11:33:35.777Z,21.02
2023-05-22T11:36:03.713Z,20.77
2023-05-22T11:38:37.536Z,22.02
2023-05-22T11:41:04.585Z,22.45
2023-05-22T11:43:41.541Z,20.08
2023-05-22T11:46:10.748Z,19.67
2023-05-22T11:48:48.451Z,19.98
2023-05-22T11:51:26.342Z,20.55
2023-05-22T11:53:53.467Z,18.65
2023-05-22T11:56:30.580Z,18.98
2023-05-22T11:58:57.520Z,19.85
2023-05-22T12:01:31.523Z,17.85
2023-05-22T12:03:58.535Z,17.63
2023-05-22T12:06:32.489Z,18.50
2023-05-22T12:09:01.182Z,16.75
2023-05-22T12:11:34.441Z,17.05
2023-05-22T12:14:02.218Z,17.13
2023-05-22T12:16:43.461Z,16.52
2023-05-22T12:19:12.288Z,17.17
2023-05-22T12:21:46.477Z,14.75
2023-05-22T12:24:23.355Z,16.60
2023-05-22T12:26:54.108Z,15.52
2023-05-22T12:29:30.398Z,14.77
2023-05-22T12:32:17.800Z,13.45
2023-05-22T12:34:55.402Z,12.48
2023-05-22T12:37:28.648Z,13.93
2023-05-22T12:40:03.609Z,12.48
2023-05-22T12:42:30.591Z,12.77
2023-05-22T12:45:07.688Z,11.55
2023-05-22T12:47:35.195Z,11.65
2023-05-22T12:50:08.543Z,11.43
2023-05-22T12:52:42.589Z,10.20
2023-05-22T12:55:11.432Z,11.27
2023-05-22T12:57:44.464Z,11.45
2023-05-22T13:00:18.537Z,10.85
2023-05-22T13:02:46.484Z,10.50
2023-05-22T13:05:20.713Z,11.43
2023-05-22T13:07:48.042Z,11.88
2023-05-22T13:10:21.936Z,12.52
2023-05-22T13:12:58.523Z,11.02
2023-05-22T13:15:32.727Z,10.60
2023-05-22T13:17:59.913Z,9.70
2023-05-22T13:20:33.564Z,11.15
2023-05-22T13:23:00.521Z,11.05
2023-05-22T13:25:34.452Z,11.10
2023-05-22T13:28:01.766Z,10.32
2023-05-22T13:30:35.490Z,10.60
2023-05-22T13:33:09.651Z,8.38
2023-05-22T13:35:37.051Z,8.20
2023-05-22T13:38:10.457Z,8.57
2023-05-22T13:40:37.524Z,8.35
2023-05-22T13:43:11.531Z,9.10
2023-05-22T13:45:38.592Z,9.27
2023-05-22T13:48:13.196Z,9.57
2023-05-22T13:50:41.437Z,10.23
2023-05-22T13:53:14.603Z,9.52
2023-05-22T13:55:42.066Z,9.77
2023-05-22T13:58:09.266Z,9.57
2023-05-22T14:00:42.666Z,9.02
2023-05-22T14:03:11.771Z,9.63
2023-05-22T14:05:45.490Z,9.15
2023-05-22T14:08:12.917Z,9.43
2023-05-22T14:10:46.964Z,11.07
2023-05-22T14:13:13.945Z,10.15
2023-05-22T14:15:49.505Z,9.82
2023-05-22T14:18:19.253Z,10.10
2023-05-22T14:20:53.678Z,10.52
2023-05-22T14:23:20.776Z,11.75
2023-05-22T14:25:47.858Z,11.07
2023-05-22T14:28:21.641Z,11.85
2023-05-22T14:30:54.874Z,10.77
2023-05-22T14:33:28.800Z,10.98
2023-05-22T14:36:02.424Z,10.80
2023-05-22T14:38:40.652Z,11.00
2023-05-22T14:41:07.653Z,11.45
2023-05-22T14:43:43.721Z,10.88
2023-05-22T14:46:11.655Z,10.05
2023-05-22T14:48:45.589Z,10.40
2023-05-22T14:51:19.529Z,10.52
2023-05-22T14:53:53.850Z,10.50
2023-05-22T14:56:22.159Z,11.80
2023-05-22T14:58:55.660Z,11.23
2023-05-22T15:01:29.576Z,11.35
2023-05-22T15:03:56.825Z,11.05
2023-05-22T15:06:30.620Z,11.18
2023-05-22T15:08:57.660Z,11.93
2023-05-22T15:11:31.764Z,11.93
2023-05-22T15:13:58.919Z,12.80
2023-05-22T15:16:32.678Z,13.48
2023-05-22T15:19:06.702Z,11.88
2023-05-22T15:21:40.797Z,12.65
2023-05-22T15:24:15.208Z,14.90
2023-05-22T15:26:48.548Z,14.38
2023-05-22T15:29:15.688Z,14.35
2023-05-22T15:31:55.580Z,15.18
2023-05-22T15:34:29.676Z,14.27
2023-05-22T15:36:56.843Z,15.65
2023-05-22T15:39:30.708Z,14.32
2023-05-22T15:42:05.940Z,14.55
2023-05-22T15:44:40.887Z,15.65
2023-05-22T15:47:07.978Z,15.80
2023-05-22T15:49:43.070Z,16.38
2023-05-22T15:52:10.107Z,15.98
2023-05-22T15:54:43.719Z,15.63
2023-05-22T15:57:17.778Z,15.88
2023-05-22T15:59:53.584Z,17.27
2023-05-22T16:02:26.900Z,16.85
2023-05-22T16:04:53.974Z,17.33
2023-05-22T16:07:27.726Z,17.08
2023-05-22T16:10:01.972Z,17.00
2023-05-22T16:12:29.031Z,17.10
2023-05-22T16:15:04.453Z,17.50
2023-05-22T16:17:47.812Z,15.65
2023-05-22T16:20:22.730Z,15.55
2023-05-22T16:22:49.853Z,14.93
2023-05-22T16:25:26.978Z,15.73
2023-05-22T16:28:00.722Z,15.90
2023-05-22T16:30:34.715Z,15.98
2023-05-22T16:33:09.148Z,15.93
2023-05-22T16:35:42.737Z,14.07
2023-05-22T16:38:12.463Z,15.60
2023-05-22T16:40:45.680Z,14.95
2023-05-22T16:43:20.802Z,12.63
2023-05-22T16:45:54.192Z,10.48
2023-05-22T16:48:27.833Z,9.13
2023-05-22T16:50:54.734Z,8.50
2023-05-22T16:53:28.891Z,8.43
2023-05-22T16:55:56.022Z,7.97
2023-05-22T16:58:29.654Z,7.82
2023-05-22T17:00:57.212Z,8.00
2023-05-22T17:03:31.934Z,7.78
2023-05-22T17:06:05.707Z,7.50
2023-05-22T17:08:32.768Z,6.88
2023-05-22T17:11:06.670Z,6.65
2023-05-22T17:13:33.724Z,6.90
2023-05-22T17:16:10.728Z,7.05
2023-05-22T17:18:38.305Z,5.70
2023-05-22T17:21:11.736Z,5.60
2023-05-22T17:23:39.175Z,4.20
2023-05-22T17:26:12.775Z,4.18
2023-05-22T17:28:39.786Z,4.72
2023-05-22T17:31:26.728Z,4.43
2023-05-22T17:33:53.745Z,3.97
2023-05-22T17:36:27.714Z,4.30
2023-05-22T17:38:54.680Z,4.63
2023-05-22T17:41:29.744Z,4.03
2023-05-22T17:43:57.487Z,5.07
2023-05-22T17:46:30.758Z,4.70
2023-05-22T17:48:58.102Z,4.45
2023-05-22T17:51:25.052Z,4.72
2023-05-22T17:54:02.802Z,4.43
2023-05-22T17:56:29.855Z,4.60
2023-05-22T17:59:03.753Z,4.60
2023-05-22T18:01:38.792Z,4.22
2023-05-22T18:04:06.538Z,4.05
2023-05-22T18:06:41.015Z,4.90
2023-05-22T18:09:08.408Z,4.50
2023-05-22T18:11:41.940Z,4.47
2023-05-22T18:14:15.668Z,4.28
2023-05-22T18:16:55.654Z,4.25
2023-05-22T18:19:29.116Z,4.07
2023-05-22T18:22:02.782Z,4.57
2023-05-22T18:24:29.708Z,3.97
2023-05-22T18:27:03.826Z,4.00
2023-05-22T18:29:30.973Z,3.92
2023-05-22T18:32:05.371Z,4.13
2023-05-22T18:34:39.035Z,4.03
2023-05-22T18:37:12.721Z,3.85
2023-05-22T18:39:39.586Z,4.03
2023-05-22T18:42:13.815Z,4.30
2023-05-22T18:44:41.505Z,4.18
2023-05-22T18:47:14.837Z,4.25
2023-05-22T18:49:42.118Z,4.65
2023-05-22T18:52:15.732Z,4.88
2023-05-22T18:54:42.796Z,4.35
2023-05-22T18:57:12.870Z,4.97
2023-05-22T18:59:47.713Z,4.57
2023-05-22T19:02:22.403Z,4.30
2023-05-22T19:04:58.378Z,4.63
2023-05-22T19:07:40.116Z,4.82
2023-05-22T19:10:08.442Z,4.78
2023-05-22T19:12:35.456Z,4.68
2023-05-22T19:15:09.886Z,4.90
2023-05-22T19:17:37.137Z,4.78
2023-05-22T19:20:15.103Z,5.07
2023-05-22T19:22:42.250Z,5.68
2023-05-22T19:25:15.882Z,5.20
2023-05-22T19:27:42.934Z,5.07
2023-05-22T19:30:16.762Z,5.72
2023-05-22T19:32:56.096Z,5.82
2023-05-22T19:35:35.885Z,5.72
2023-05-22T19:38:03.166Z,5.43
2023-05-22T19:40:36.778Z,5.15
2023-05-22T19:43:04.165Z,4.90
2023-05-22T19:45:37.811Z,5.25
2023-05-22T19:48:04.868Z,5.05
2023-05-22T19:50:32.820Z,4.90
2023-05-22T19:53:06.963Z,5.50
2023-05-22T19:55:33.980Z,5.60
2023-05-22T19:58:07.706Z,5.07
2023-05-22T20:00:36.044Z,5.15
2023-05-22T20:03:09.866Z,5.70
2023-05-22T20:05:43.266Z,5.32
2023-05-22T20:08:17.796Z,5.68
2023-05-22T20:10:44.947Z,5.68
2023-05-22T20:13:18.855Z,5.57
2023-05-22T20:15:47.919Z,5.53
2023-05-22T20:18:15.122Z,5.47
2023-05-22T20:20:48.787Z,5.32
2023-05-22T20:23:15.952Z,6.22
2023-05-22T20:25:49.847Z,6.00
2023-05-22T20:28:16.894Z,6.43
2023-05-22T20:30:50.859Z,6.50
2023-05-22T20:33:23.988Z,6.38
2023-05-22T20:35:58.870Z,6.40
2023-05-22T20:38:26.274Z,6.40
2023-05-22T20:41:00.925Z,6.53
2023-05-22T20:43:30.443Z,6.40
2023-05-22T20:46:04.781Z,6.65
2023-05-22T20:48:34.445Z,7.28
2023-05-22T20:51:07.810Z,6.78
2023-05-22T20:53:40.823Z,6.85
2023-05-22T20:56:14.735Z,6.68
2023-05-22T20:58:47.708Z,6.93
2023-05-22T21:01:14.660Z,7.55
2023-05-22T21:03:47.752Z,8.02
2023-05-22T21:06:14.692Z,6.45
2023-05-22T21:08:47.815Z,7.57
2023-05-22T21:11:14.990Z,7.78
2023-05-22T21:13:48.862Z,8.18
2023-05-22T21:16:15.791Z,6.82
2023-05-22T21:18:49.807Z,8.25
2023-05-22T21:21:26.764Z,8.30
2023-05-22T21:23:59.880Z,8.32
2023-05-22T21:26:27.750Z,9.68
2023-05-22T21:28:54.965Z,9.98
2023-05-22T21:31:28.923Z,10.45
2023-05-22T21:34:02.728Z,10.25
2023-05-22T21:36:35.825Z,10.98
2023-05-22T21:39:03.957Z,9.70
2023-05-22T21:41:40.866Z,9.70
2023-05-22T21:44:16.904Z,9.02
2023-05-22T21:46:49.859Z,7.80
2023-05-22T21:49:22.803Z,7.90
2023-05-22T21:51:55.902Z,8.65
2023-05-22T21:54:22.928Z,8.40
2023-05-22T21:56:56.022Z,8.40
2023-05-22T21:59:23.147Z,8.00
2023-05-22T22:01:50.274Z,7.50
2023-05-22T22:04:26.942Z,7.97
2023-05-22T22:07:04.292Z,7.72
2023-05-22T22:09:37.907Z,7.22
2023-05-22T22:12:05.149Z,7.30
2023-05-22T22:14:38.973Z,6.93
2023-05-22T22:17:06.187Z,6.80
2023-05-22T22:19:43.859Z,6.70
2023-05-22T22:22:15.318Z,7.22
2023-05-22T22:24:48.956Z,6.57
2023-05-22T22:27:15.959Z,6.72
2023-05-22T22:29:53.882Z,7.40
2023-05-22T22:32:27.146Z,6.72
2023-05-22T22:35:07.901Z,6.40
2023-05-22T22:37:35.052Z,6.55
2023-05-22T22:40:10.816Z,6.50
2023-05-22T22:42:40.866Z,6.80
2023-05-22T22:45:17.924Z,6.47
2023-05-22T22:47:46.060Z,6.43
2023-05-22T22:50:20.228Z,7.55
2023-05-22T22:52:49.425Z,6.72
2023-05-22T22:55:23.145Z,7.28
2023-05-22T22:57:50.760Z,6.78
2023-05-22T23:00:27.137Z,6.68
2023-05-22T23:03:00.929Z,6.57
2023-05-22T23:05:28.150Z,7.35
2023-05-22T23:08:08.872Z,7.68
2023-05-22T23:10:36.163Z,7.72
2023-05-22T23:13:13.133Z,7.22
2023-05-22T23:15:43.358Z,7.70
2023-05-22T23:18:18.039Z,7.25
2023-05-22T23:20:45.272Z,7.97
2023-05-22T23:23:18.856Z,7.72
2023-05-22T23:25:46.150Z,8.30
2023-05-22T23:28:21.878Z,7.65
2023-05-22T23:30:49.018Z,7.53
2023-05-22T23:33:28.912Z,7.97
2023-05-22T23:36:03.224Z,7.95
2023-05-22T23:38:36.931Z,7.78
2023-05-22T23:41:10.947Z,8.80
2023-05-22T23:43:38.261Z,8.27
2023-05-22T23:46:15.543Z,8.48
2023-05-22T23:48:43.036Z,8.80
2023-05-22T23:51:21.964Z,8.85
2023-05-22T23:53:48.893Z,9.02
2023-05-22T23:56:37.977Z,8.55
2023-05-22T23:59:08.742Z,8.98
